createdAt,value
2022-11-29T00:01:41.447Z,101945.02
2022-11-29T00:04:09.740Z,101946.17
2022-11-29T00:06:38.722Z,101940.09
2022-11-29T00:09:09.371Z,101942.04
2022-11-29T00:11:56.979Z,101945.42
2022-11-29T00:14:26.999Z,101950.45
2022-11-29T00:16:59.503Z,101948.86
2022-11-29T00:19:28.261Z,101949.20
2022-11-29T00:21:56.745Z,101944.64
2022-11-29T00:24:25.026Z,101945.33
2022-11-29T00:26:53.294Z,101946.25
2022-11-29T00:29:21.682Z,101947.67
2022-11-29T00:31:50.159Z,101944.45
2022-11-29T00:34:18.541Z,101942.23
2022-11-29T00:36:46.916Z,101943.27
2022-11-29T00:39:16.626Z,101944.60
2022-11-29T00:41:47.463Z,101946.77
2022-11-29T00:44:20.203Z,101945.77
2022-11-29T00:46:49.660Z,101942.90
2022-11-29T00:49:17.926Z,101942.09
2022-11-29T00:51:47.329Z,101937.08
2022-11-29T00:54:15.717Z,101934.42
2022-11-29T00:56:44.495Z,101935.01
2022-11-29T00:59:12.775Z,101935.82
2022-11-29T01:01:41.239Z,101935.28
2022-11-29T01:04:09.838Z,101934.27
2022-11-29T01:06:38.221Z,101935.46
2022-11-29T01:09:06.703Z,101937.48
2022-11-29T01:11:35.082Z,101934.38
2022-11-29T01:14:04.491Z,101928.61
2022-11-29T01:16:33.506Z,101924.27
2022-11-29T01:19:02.064Z,101922.69
2022-11-29T01:21:31.057Z,101922.60
2022-11-29T01:24:00.265Z,101922.52
2022-11-29T01:26:30.375Z,101924.89
2022-11-29T01:28:59.580Z,101927.56
2022-11-29T01:31:33.588Z,101926.17
2022-11-29T01:34:04.324Z,101927.95
2022-11-29T01:36:33.312Z,101924.39
2022-11-29T01:39:03.226Z,101919.45
2022-11-29T01:41:33.757Z,101923.46
2022-11-29T01:44:31.022Z,101917.76
2022-11-29T01:46:59.391Z,101915.71
2022-11-29T01:49:40.262Z,101908.05
2022-11-29T01:52:11.306Z,101907.44
2022-11-29T01:54:43.919Z,101904.73
2022-11-29T01:57:13.696Z,101900.19
2022-11-29T01:59:47.335Z,101900.91
2022-11-29T02:02:37.810Z,101897.50
2022-11-29T02:05:07.401Z,101893.71
2022-11-29T02:07:36.239Z,101888.98
2022-11-29T02:10:06.232Z,101886.68
2022-11-29T02:12:51.588Z,101884.23
2022-11-29T02:15:22.757Z,101887.54
2022-11-29T02:18:09.647Z,101889.06
2022-11-29T02:21:15.298Z,101888.41
2022-11-29T02:24:01.707Z,101894.64
2022-11-29T02:27:07.458Z,101897.77
2022-11-29T02:30:00.313Z,101901.02
2022-11-29T02:32:59.615Z,101901.52
2022-11-29T02:36:11.426Z,101896.70
2022-11-29T02:38:54.948Z,101893.98
2022-11-29T02:41:51.386Z,101889.95
2022-11-29T02:44:54.583Z,101879.02
2022-11-29T02:47:32.076Z,101871.44
2022-11-29T02:50:29.023Z,101876.73
2022-11-29T02:53:05.707Z,101884.27
2022-11-29T02:55:45.857Z,101890.04
2022-11-29T02:58:19.871Z,101892.37
2022-11-29T03:01:09.887Z,101884.18
2022-11-29T03:03:51.366Z,101873.27
2022-11-29T03:06:38.158Z,101873.66
2022-11-29T03:09:43.118Z,101868.80
2022-11-29T03:12:27.189Z,101869.15
2022-11-29T03:15:03.394Z,101875.39
2022-11-29T03:17:58.707Z,101879.92
2022-11-29T03:20:55.144Z,101882.42
2022-11-29T03:23:57.927Z,101876.27
2022-11-29T03:26:33.205Z,101873.11
2022-11-29T03:29:08.400Z,101877.41
2022-11-29T03:31:42.623Z,101885.11
2022-11-29T03:34:52.934Z,101890.99
2022-11-29T03:37:48.915Z,101898.72
2022-11-29T03:40:23.012Z,101888.55
2022-11-29T03:42:57.153Z,101877.77
2022-11-29T03:45:35.973Z,101880.05
2022-11-29T03:48:08.132Z,101887.81
2022-11-29T03:50:46.359Z,101885.66
2022-11-29T03:53:33.363Z,101880.15
2022-11-29T03:56:05.552Z,101886.48
2022-11-29T03:58:55.721Z,101883.62
2022-11-29T04:02:01.476Z,101881.92
2022-11-29T04:04:55.350Z,101883.41
2022-11-29T04:07:48.348Z,101882.42
2022-11-29T04:10:57.340Z,101882.82
2022-11-29T04:13:47.353Z,101890.63
2022-11-29T04:16:44.069Z,101896.47
2022-11-29T04:20:03.136Z,101895.23
2022-11-29T04:22:40.531Z,101896.64
2022-11-29T04:25:40.958Z,101893.71
2022-11-29T04:28:33.678Z,101890.70
2022-11-29T04:31:29.475Z,101890.31
2022-11-29T04:34:14.399Z,101887.58
2022-11-29T04:36:46.771Z,101887.39
2022-11-29T04:39:43.006Z,101886.77
2022-11-29T04:42:37.288Z,101891.30
2022-11-29T04:45:40.180Z,101900.77
2022-11-29T04:48:19.718Z,101899.30
2022-11-29T04:51:05.923Z,101902.61
2022-11-29T04:53:40.337Z,101898.85
2022-11-29T04:56:12.204Z,101900.32
2022-11-29T04:58:56.349Z,101904.25
2022-11-29T05:01:32.844Z,101907.55
2022-11-29T05:04:17.783Z,101907.73
2022-11-29T05:07:07.976Z,101911.25
2022-11-29T05:09:53.456Z,101914.17
2022-11-29T05:12:39.349Z,101915.23
2022-11-29T05:15:30.662Z,101913.50
2022-11-29T05:18:26.692Z,101916.52
2022-11-29T05:21:14.839Z,101918.88
2022-11-29T05:23:58.899Z,101924.09
2022-11-29T05:26:33.920Z,101929.23
2022-11-29T05:29:12.433Z,101933.20
2022-11-29T05:32:11.840Z,101934.23
2022-11-29T05:34:52.917Z,101937.55
2022-11-29T05:38:02.263Z,101936.92
2022-11-29T05:41:08.831Z,101936.96
2022-11-29T05:43:56.053Z,101938.98
2022-11-29T05:46:49.806Z,101937.95
2022-11-29T05:49:36.747Z,101939.77
2022-11-29T05:52:24.884Z,101947.02
2022-11-29T05:55:14.561Z,101957.20
2022-11-29T05:57:46.322Z,101958.48
2022-11-29T06:00:16.974Z,101961.45
2022-11-29T06:03:03.941Z,101963.90
2022-11-29T06:06:01.095Z,101965.89
2022-11-29T06:08:41.594Z,101965.79
2022-11-29T06:11:23.857Z,101962.41
2022-11-29T06:14:30.164Z,101958.67
2022-11-29T06:17:30.982Z,101953.83
2022-11-29T06:20:35.218Z,101941.66
2022-11-29T06:23:12.712Z,101947.08
2022-11-29T06:26:07.716Z,101956.85
2022-11-29T06:28:39.059Z,101945.61
2022-11-29T06:31:19.350Z,101943.23
2022-11-29T06:33:50.774Z,101943.66
2022-11-29T06:36:38.518Z,101939.65
2022-11-29T06:39:07.586Z,101932.83
2022-11-29T06:41:36.395Z,101930.87
2022-11-29T06:44:05.649Z,101933.20
2022-11-29T06:46:47.075Z,101946.98
2022-11-29T06:49:29.486Z,101945.71
2022-11-29T06:52:30.534Z,101946.62
2022-11-29T06:55:17.561Z,101948.91
2022-11-29T06:58:41.533Z,101938.00
2022-11-29T07:01:15.633Z,101946.88
2022-11-29T07:03:46.896Z,101948.42
2022-11-29T07:06:21.824Z,101946.66
2022-11-29T07:08:55.789Z,101946.07
2022-11-29T07:11:24.383Z,101949.48
2022-11-29T07:13:53.208Z,101948.76
2022-11-29T07:16:57.490Z,101952.45
2022-11-29T07:19:56.018Z,101952.16
2022-11-29T07:22:41.092Z,101949.80
2022-11-29T07:25:35.896Z,101954.39
2022-11-29T07:28:22.905Z,101950.39
2022-11-29T07:31:12.766Z,101955.14
2022-11-29T07:34:05.331Z,101954.73
2022-11-29T07:37:09.553Z,101952.02
2022-11-29T07:39:37.932Z,101959.15
2022-11-29T07:42:20.031Z,101957.94
2022-11-29T07:45:18.740Z,101958.39
2022-11-29T07:47:47.203Z,101959.77
2022-11-29T07:50:16.023Z,101959.98
2022-11-29T07:52:44.680Z,101957.83
2022-11-29T07:55:18.628Z,101959.09
2022-11-29T07:57:50.959Z,101961.00
2022-11-29T08:00:20.480Z,101961.12
2022-11-29T08:02:50.382Z,101962.96
2022-11-29T08:05:18.864Z,101965.81
2022-11-29T08:07:48.018Z,101970.90
2022-11-29T08:10:17.783Z,101968.55
2022-11-29T08:12:50.307Z,101970.22
2022-11-29T08:15:22.829Z,101975.09
2022-11-29T08:17:51.331Z,101978.12
2022-11-29T08:20:20.021Z,101977.41
2022-11-29T08:22:58.954Z,101978.53
2022-11-29T08:25:28.266Z,101979.59
2022-11-29T08:27:56.913Z,101981.07
2022-11-29T08:30:25.185Z,101975.48
2022-11-29T08:32:53.564Z,101976.30
2022-11-29T08:35:24.094Z,101975.77
2022-11-29T08:37:52.371Z,101978.95
2022-11-29T08:40:20.752Z,101978.80
2022-11-29T08:42:49.129Z,101978.04
2022-11-29T08:45:17.520Z,101978.92
2022-11-29T08:47:45.995Z,101978.19
2022-11-29T08:50:16.707Z,101976.73
2022-11-29T08:53:05.890Z,101974.82
2022-11-29T08:55:43.263Z,101972.12
2022-11-29T08:58:14.195Z,101974.52
2022-11-29T09:00:45.708Z,101973.20
2022-11-29T09:03:32.898Z,101970.93
2022-11-29T09:06:21.450Z,101969.38
2022-11-29T09:08:49.844Z,101962.44
2022-11-29T09:11:21.269Z,101963.19
2022-11-29T09:13:51.918Z,101959.73
2022-11-29T09:16:23.610Z,101961.12
2022-11-29T09:18:55.227Z,101960.95
2022-11-29T09:21:25.250Z,101957.10
2022-11-29T09:23:59.461Z,101957.40
2022-11-29T09:26:30.820Z,101955.60
2022-11-29T09:29:01.550Z,101952.53
2022-11-29T09:31:31.247Z,101951.62
2022-11-29T09:34:00.040Z,101952.72
2022-11-29T09:36:30.402Z,101952.11
2022-11-29T09:38:59.728Z,101950.31
2022-11-29T09:41:48.558Z,101956.45
2022-11-29T09:44:33.364Z,101953.64
2022-11-29T09:47:28.195Z,101951.29
2022-11-29T09:50:08.347Z,101950.92
2022-11-29T09:52:55.368Z,101954.17
2022-11-29T09:55:33.471Z,101955.48
2022-11-29T09:58:04.063Z,101956.38
2022-11-29T10:00:36.473Z,101951.02
2022-11-29T10:03:14.896Z,101951.30
2022-11-29T10:05:50.478Z,101947.65
2022-11-29T10:08:32.335Z,101945.40
2022-11-29T10:11:23.147Z,101942.37
2022-11-29T10:13:56.865Z,101940.29
2022-11-29T10:16:31.997Z,101943.10
2022-11-29T10:19:53.093Z,101944.43
2022-11-29T10:22:44.413Z,101947.07
2022-11-29T10:25:20.897Z,101948.04
2022-11-29T10:27:49.498Z,101944.55
2022-11-29T10:30:18.894Z,101940.45
2022-11-29T10:32:51.863Z,101940.33
2022-11-29T10:35:20.852Z,101939.33
2022-11-29T10:38:14.675Z,101937.61
2022-11-29T10:40:40.340Z,101936.30
2022-11-29T10:43:09.537Z,101938.38
2022-11-29T10:45:46.118Z,101933.81
2022-11-29T10:48:22.272Z,101934.77
2022-11-29T10:50:52.601Z,101932.81
2022-11-29T10:53:26.884Z,101928.45
2022-11-29T10:56:04.631Z,101934.48
2022-11-29T10:58:33.606Z,101933.58
2022-11-29T11:01:07.148Z,101933.08
2022-11-29T11:03:53.103Z,101931.55
2022-11-29T11:06:46.154Z,101927.04
2022-11-29T11:09:43.860Z,101924.66
2022-11-29T11:12:20.028Z,101926.95
2022-11-29T11:14:48.984Z,101927.34
2022-11-29T11:17:30.568Z,101921.95
2022-11-29T11:20:08.680Z,101923.63
2022-11-29T11:22:40.227Z,101925.08
2022-11-29T11:25:26.461Z,101925.95
2022-11-29T11:27:55.043Z,101924.40
2022-11-29T11:30:29.054Z,101927.27
2022-11-29T11:33:31.503Z,101921.73
2022-11-29T11:36:13.781Z,101922.34
2022-11-29T11:38:57.036Z,101927.94
2022-11-29T11:41:52.342Z,101925.30
2022-11-29T11:44:51.723Z,101922.77
2022-11-29T11:47:25.863Z,101921.05
2022-11-29T11:50:07.247Z,101921.90
2022-11-29T11:52:50.811Z,101923.28
2022-11-29T11:55:24.899Z,101922.66
2022-11-29T11:58:02.259Z,101926.59
2022-11-29T12:01:03.553Z,101925.90
2022-11-29T12:03:55.570Z,101925.69
2022-11-29T12:06:42.385Z,101921.98
2022-11-29T12:09:45.891Z,101921.69
2022-11-29T12:12:28.600Z,101920.19
2022-11-29T12:14:59.549Z,101918.40
2022-11-29T12:17:39.183Z,101915.04
2022-11-29T12:20:22.412Z,101909.48
2022-11-29T12:22:51.105Z,101909.85
2022-11-29T12:25:28.590Z,101910.11
2022-11-29T12:27:56.974Z,101907.17
2022-11-29T12:30:25.360Z,101909.20
2022-11-29T12:33:08.883Z,101908.10
2022-11-29T12:35:50.779Z,101909.64
2022-11-29T12:38:34.419Z,101909.21
2022-11-29T12:41:37.612Z,101906.86
2022-11-29T12:44:18.589Z,101911.04
2022-11-29T12:47:28.142Z,101912.14
2022-11-29T12:50:11.463Z,101914.71
2022-11-29T12:52:48.859Z,101921.20
2022-11-29T12:55:30.748Z,101926.58
2022-11-29T12:58:05.878Z,101935.56
2022-11-29T13:00:51.472Z,101939.12
2022-11-29T13:03:58.148Z,101941.58
2022-11-29T13:06:30.930Z,101945.11
2022-11-29T13:09:11.503Z,101946.92
2022-11-29T13:11:59.846Z,101950.50
2022-11-29T13:14:53.211Z,101953.66
2022-11-29T13:17:27.733Z,101951.61
2022-11-29T13:19:59.592Z,101949.77
2022-11-29T13:22:46.612Z,101949.69
2022-11-29T13:25:23.696Z,101952.48
2022-11-29T13:27:58.831Z,101949.53
2022-11-29T13:30:27.213Z,101950.51
2022-11-29T13:33:12.278Z,101955.88
2022-11-29T13:35:47.071Z,101958.98
2022-11-29T13:38:18.475Z,101965.39
2022-11-29T13:40:56.052Z,101965.80
2022-11-29T13:43:30.743Z,101965.11
2022-11-29T13:46:33.412Z,101966.48
2022-11-29T13:49:01.851Z,101965.63
2022-11-29T13:51:30.227Z,101968.55
2022-11-29T13:54:01.960Z,101964.36
2022-11-29T13:56:37.124Z,101966.38
2022-11-29T13:59:08.806Z,101972.05
2022-11-29T14:01:48.343Z,101970.47
2022-11-29T14:04:28.988Z,101970.37
2022-11-29T14:07:13.451Z,101971.03
2022-11-29T14:09:58.258Z,101975.64
2022-11-29T14:12:28.534Z,101980.19
2022-11-29T14:14:57.222Z,101982.17
2022-11-29T14:17:51.202Z,101984.41
2022-11-29T14:20:25.720Z,101981.08
2022-11-29T14:23:06.186Z,101973.85
2022-11-29T14:25:56.476Z,101971.60
2022-11-29T14:28:24.864Z,101965.33
2022-11-29T14:31:03.821Z,101964.55
2022-11-29T14:33:40.969Z,101964.43
2022-11-29T14:36:15.451Z,101962.98
2022-11-29T14:38:46.632Z,101968.35
2022-11-29T14:41:28.005Z,101965.89
2022-11-29T14:44:30.192Z,101963.69
2022-11-29T14:47:05.120Z,101965.38
2022-11-29T14:49:45.383Z,101972.20
2022-11-29T14:52:13.560Z,101970.82
2022-11-29T14:55:09.334Z,101973.43
2022-11-29T14:57:52.912Z,101975.79
2022-11-29T15:00:42.286Z,101978.94
2022-11-29T15:03:25.534Z,101974.37
2022-11-29T15:06:11.832Z,101973.47
2022-11-29T15:09:02.864Z,101969.34
2022-11-29T15:11:40.219Z,101969.36
2022-11-29T15:14:31.280Z,101974.27
2022-11-29T15:17:14.858Z,101976.10
2022-11-29T15:19:52.354Z,101983.26
2022-11-29T15:22:24.488Z,101986.47
2022-11-29T15:24:53.976Z,101986.02
2022-11-29T15:27:23.019Z,101988.63
2022-11-29T15:29:52.988Z,101988.89
2022-11-29T15:32:21.317Z,101989.34
2022-11-29T15:34:52.385Z,101988.19
2022-11-29T15:37:32.615Z,101988.69
2022-11-29T15:40:04.059Z,101989.36
2022-11-29T15:42:44.184Z,101993.06
2022-11-29T15:45:35.473Z,101999.92
2022-11-29T15:48:23.166Z,102008.58
2022-11-29T15:51:06.395Z,102008.06
2022-11-29T15:53:42.850Z,102010.98
2022-11-29T15:56:20.666Z,102010.83
2022-11-29T15:58:50.479Z,102009.80
2022-11-29T16:01:22.236Z,102006.67
2022-11-29T16:03:53.892Z,102004.05
2022-11-29T16:06:41.731Z,102009.36
2022-11-29T16:09:14.760Z,102012.98
2022-11-29T16:11:43.300Z,102016.14
2022-11-29T16:14:11.474Z,102015.63
2022-11-29T16:16:40.934Z,102013.85
2022-11-29T16:19:18.577Z,102013.02
2022-11-29T16:22:01.102Z,102008.59
2022-11-29T16:24:29.608Z,102009.73
2022-11-29T16:27:00.412Z,102017.36
2022-11-29T16:29:36.873Z,102021.79
2022-11-29T16:32:30.141Z,102022.82
2022-11-29T16:35:07.623Z,102020.41
2022-11-29T16:37:41.666Z,102024.71
2022-11-29T16:40:29.857Z,102032.42
2022-11-29T16:43:04.401Z,102038.25
2022-11-29T16:45:39.284Z,102041.23
2022-11-29T16:48:22.779Z,102043.70
2022-11-29T16:51:21.261Z,102045.95
2022-11-29T16:53:53.327Z,102045.97
2022-11-29T16:56:24.792Z,102046.14
2022-11-29T16:59:21.095Z,102048.99
2022-11-29T17:01:46.141Z,102050.39
2022-11-29T17:04:23.558Z,102053.73
2022-11-29T17:06:57.209Z,102053.73
2022-11-29T17:09:31.734Z,102053.52
2022-11-29T17:12:01.361Z,102053.68
2022-11-29T17:14:30.026Z,102059.27
2022-11-29T17:17:02.179Z,102064.79
2022-11-29T17:19:31.081Z,102069.30
2022-11-29T17:21:59.668Z,102068.39
2022-11-29T17:24:28.149Z,102064.83
2022-11-29T17:26:56.327Z,102066.02
2022-11-29T17:29:24.715Z,102068.00
2022-11-29T17:31:53.855Z,102072.98
2022-11-29T17:34:22.188Z,102078.75
2022-11-29T17:36:52.099Z,102082.05
2022-11-29T17:39:22.035Z,102084.34
2022-11-29T17:41:50.491Z,102085.58
2022-11-29T17:44:18.882Z,102088.20
2022-11-29T17:46:47.147Z,102090.77
2022-11-29T17:49:15.627Z,102099.44
2022-11-29T17:51:52.979Z,102104.75
2022-11-29T17:54:23.040Z,102104.69
2022-11-29T17:56:52.137Z,102104.38
2022-11-29T17:59:20.728Z,102104.89
2022-11-29T18:01:49.226Z,102105.59
2022-11-29T18:04:17.800Z,102102.66
2022-11-29T18:06:50.405Z,102101.20
2022-11-29T18:09:20.168Z,102102.14
2022-11-29T18:11:50.502Z,102100.81
2022-11-29T18:14:24.269Z,102099.83
2022-11-29T18:16:52.750Z,102099.69
2022-11-29T18:19:21.751Z,102096.27
2022-11-29T18:21:50.856Z,102093.21
2022-11-29T18:24:19.778Z,102094.56
2022-11-29T18:26:48.351Z,102098.22
2022-11-29T18:29:17.041Z,102102.45
2022-11-29T18:31:46.467Z,102108.59
2022-11-29T18:34:15.240Z,102106.11
2022-11-29T18:36:46.272Z,102106.80
2022-11-29T18:39:19.527Z,102103.30
2022-11-29T18:41:49.685Z,102100.62
2022-11-29T18:44:20.629Z,102100.48
2022-11-29T18:46:49.326Z,102104.30
2022-11-29T18:49:18.533Z,102105.39
2022-11-29T18:51:47.917Z,102103.57
2022-11-29T18:54:18.548Z,102104.73
2022-11-29T18:56:47.747Z,102106.14
2022-11-29T18:59:18.510Z,102108.55
2022-11-29T19:01:48.692Z,102099.34
2022-11-29T19:04:19.701Z,102112.23
2022-11-29T19:06:48.745Z,102115.63
2022-11-29T19:09:21.574Z,102113.70
2022-11-29T19:11:51.163Z,102110.58
2022-11-29T19:14:19.939Z,102111.95
2022-11-29T19:16:49.377Z,102110.92
2022-11-29T19:19:19.243Z,102112.08
2022-11-29T19:21:48.240Z,102114.19
2022-11-29T19:24:18.405Z,102121.98
2022-11-29T19:26:47.971Z,102131.62
2022-11-29T19:29:16.762Z,102134.10
2022-11-29T19:31:44.924Z,102132.80
2022-11-29T19:34:13.405Z,102128.85
2022-11-29T19:36:43.702Z,102127.86
2022-11-29T19:39:15.001Z,102129.66
2022-11-29T19:41:45.639Z,102130.52
2022-11-29T19:44:14.294Z,102130.67
2022-11-29T19:46:46.152Z,102130.15
2022-11-29T19:49:15.041Z,102127.77
2022-11-29T19:51:43.327Z,102127.16
2022-11-29T19:54:12.352Z,102124.58
2022-11-29T19:56:40.900Z,102128.90
2022-11-29T19:59:09.585Z,102125.70
2022-11-29T20:01:41.553Z,102125.65
2022-11-29T20:04:12.904Z,102112.89
2022-11-29T20:06:41.803Z,102125.98
2022-11-29T20:09:11.098Z,102125.48
2022-11-29T20:11:39.681Z,102129.17
2022-11-29T20:14:09.294Z,102126.02
2022-11-29T20:16:39.321Z,102125.63
2022-11-29T20:19:16.389Z,102125.78
2022-11-29T20:21:48.031Z,102129.63
2022-11-29T20:24:17.756Z,102132.84
2022-11-29T20:26:47.582Z,102136.17
2022-11-29T20:29:16.872Z,102139.30
2022-11-29T20:31:50.228Z,102140.72
2022-11-29T20:34:20.467Z,102141.34
2022-11-29T20:37:13.573Z,102140.84
2022-11-29T20:39:52.657Z,102135.39
2022-11-29T20:42:44.213Z,102129.28
2022-11-29T20:45:14.304Z,102131.67
2022-11-29T20:47:48.204Z,102133.08
2022-11-29T20:50:23.600Z,102135.29
2022-11-29T20:52:56.963Z,102135.52
2022-11-29T20:55:25.548Z,102136.27
2022-11-29T20:57:53.823Z,102133.58
2022-11-29T21:00:22.618Z,102132.13
2022-11-29T21:02:50.994Z,102131.55
2022-11-29T21:05:19.474Z,102128.66
2022-11-29T21:07:47.999Z,102125.94
2022-11-29T21:10:16.746Z,102126.05
2022-11-29T21:12:45.998Z,102132.70
2022-11-29T21:15:15.232Z,102136.45
2022-11-29T21:17:44.041Z,102139.50
2022-11-29T21:20:22.434Z,102141.52
2022-11-29T21:23:13.767Z,102139.71
2022-11-29T21:25:59.550Z,102133.08
2022-11-29T21:28:32.697Z,102122.55
2022-11-29T21:31:01.511Z,102126.69
2022-11-29T21:33:30.428Z,102123.13
2022-11-29T21:35:59.318Z,102119.87
2022-11-29T21:38:27.797Z,102114.08
2022-11-29T21:40:56.074Z,102116.84
2022-11-29T21:43:43.592Z,102117.88
2022-11-29T21:46:12.926Z,102116.41
2022-11-29T21:48:42.717Z,102119.27
2022-11-29T21:51:12.119Z,102112.34
2022-11-29T21:53:41.121Z,102108.33
2022-11-29T21:56:11.061Z,102102.16
2022-11-29T21:58:39.924Z,102094.91
2022-11-29T22:01:13.520Z,102101.95
2022-11-29T22:03:42.826Z,102116.11
2022-11-29T22:06:13.256Z,102114.46
2022-11-29T22:08:42.141Z,102113.85
2022-11-29T22:11:13.685Z,102114.28
2022-11-29T22:14:02.301Z,102111.23
2022-11-29T22:16:30.951Z,102104.94
2022-11-29T22:18:59.126Z,102110.52
2022-11-29T22:21:28.412Z,102111.84
2022-11-29T22:23:57.402Z,102109.60
2022-11-29T22:26:25.683Z,102105.29
2022-11-29T22:28:53.956Z,102111.14
2022-11-29T22:31:22.371Z,102105.61
2022-11-29T22:33:54.407Z,102102.95
2022-11-29T22:36:23.191Z,102105.26
2022-11-29T22:38:51.697Z,102111.24
2022-11-29T22:41:20.361Z,102118.07
2022-11-29T22:43:49.557Z,102118.33
2022-11-29T22:46:22.786Z,102113.30
2022-11-29T22:48:53.060Z,102112.74
2022-11-29T22:51:23.941Z,102112.52
2022-11-29T22:54:06.193Z,102114.51
2022-11-29T22:56:37.392Z,102115.46
2022-11-29T22:59:06.048Z,102114.30
2022-11-29T23:01:36.296Z,102116.08
2022-11-29T23:04:07.377Z,102118.49
2022-11-29T23:06:38.299Z,102116.90
2022-11-29T23:09:15.478Z,102119.48
2022-11-29T23:11:45.361Z,102118.14
2022-11-29T23:14:13.528Z,102115.82
2022-11-29T23:16:42.100Z,102115.83
2022-11-29T23:19:11.001Z,102110.21
2022-11-29T23:21:41.230Z,102107.48
2022-11-29T23:24:09.812Z,102104.04
2022-11-29T23:26:40.573Z,102103.89
2022-11-29T23:29:11.281Z,102101.91
2022-11-29T23:31:40.272Z,102105.00
2022-11-29T23:34:08.715Z,102111.16
2022-11-29T23:36:37.139Z,102109.90
2022-11-29T23:39:06.906Z,102110.46
2022-11-29T23:41:36.541Z,102114.54
2022-11-29T23:44:08.281Z,102110.20
2022-11-29T23:46:36.692Z,102106.45
2022-11-29T23:49:05.073Z,102103.36
2022-11-29T23:51:33.454Z,102099.20
2022-11-29T23:54:01.831Z,102095.96
2022-11-29T23:56:35.705Z,102091.22
2022-11-29T23:59:04.429Z,102082.63
